Time;durP1;ratioP1;P1;durP2;ratioP2;P2;SDS_P1;SDS_P2;PMS_P1;PMS_P2;Temp;Humidity;BMP_temperature;BMP_pressure;BME280_temperature;BME280_humidity;BME280_pressure;Samples;Min_cycle;Max_cycle;Signal;HPM_P1;HPM_P2
2021/07/06 00:02:19;;;;;;;6.60;6.13;;;18.70;99.90;;;;;;5013287;28;20180;-65
2021/07/06 00:04:47;;;;;;;6.50;6.20;;;18.70;99.90;;;;;;5013506;28;20199;-65
2021/07/06 00:07:16;;;;;;;8.77;6.60;;;18.80;99.90;;;;;;5013310;28;20283;-65
2021/07/06 00:09:42;;;;;;;6.30;6.00;;;18.80;99.90;;;;;;5012980;28;20644;-65
2021/07/06 00:12:08;;;;;;;6.70;6.30;;;18.70;99.90;;;;;;5013373;28;20252;-65
2021/07/06 00:14:33;;;;;;;6.23;5.93;;;18.70;99.90;;;;;;5013205;28;20180;-65
2021/07/06 00:16:59;;;;;;;6.23;5.63;;;18.70;99.90;;;;;;5013009;28;20207;-65
2021/07/06 00:19:25;;;;;;;6.30;5.90;;;18.70;99.90;;;;;;5012874;28;20180;-65
2021/07/06 00:21:50;;;;;;;6.70;6.20;;;18.70;99.90;;;;;;5013163;28;20169;-65
2021/07/06 00:24:16;;;;;;;6.40;6.00;;;18.60;99.90;;;;;;5012986;28;20281;-65
2021/07/06 00:26:41;;;;;;;6.30;6.00;;;18.60;99.90;;;;;;5011683;28;20263;-66
2021/07/06 00:29:07;;;;;;;6.40;5.90;;;18.60;99.90;;;;;;5012840;28;20180;-65
2021/07/06 00:31:33;;;;;;;6.50;5.90;;;18.60;99.90;;;;;;5012929;28;20190;-65
2021/07/06 00:33:58;;;;;;;5.80;5.50;;;18.60;99.90;;;;;;5012790;28;20188;-65
2021/07/06 00:36:24;;;;;;;6.40;5.80;;;18.60;99.90;;;;;;5012930;28;20203;-65
2021/07/06 00:38:49;;;;;;;6.40;6.00;;;18.60;99.90;;;;;;5012721;28;20201;-65
2021/07/06 00:41:15;;;;;;;5.70;5.40;;;18.60;99.90;;;;;;5012740;28;20269;-65
2021/07/06 00:43:41;;;;;;;5.60;5.20;;;18.60;99.90;;;;;;5012558;28;20214;-65
2021/07/06 00:46:06;;;;;;;5.50;5.07;;;18.60;99.90;;;;;;5012463;28;20259;-65
2021/07/06 00:48:33;;;;;;;5.83;5.50;;;18.60;99.90;;;;;;5012673;28;20226;-66
2021/07/06 00:50:59;;;;;;;6.40;6.10;;;18.60;99.90;;;;;;5012676;28;20196;-65
2021/07/06 00:53:25;;;;;;;5.77;5.47;;;18.70;99.90;;;;;;5012575;28;20543;-66
2021/07/06 00:55:53;;;;;;;5.47;5.27;;;18.70;99.90;;;;;;5012348;28;20226;-65
2021/07/06 00:58:20;;;;;;;6.10;5.80;;;18.80;99.90;;;;;;5012427;28;20267;-66
2021/07/06 01:00:46;;;;;;;5.30;5.10;;;18.80;99.90;;;;;;5011145;28;20204;-65
2021/07/06 01:03:12;;;;;;;6.23;5.93;;;18.80;99.90;;;;;;5012291;28;20218;-65
2021/07/06 01:05:39;;;;;;;6.27;5.70;;;18.80;99.90;;;;;;5011724;28;20172;-65
2021/07/06 01:08:06;;;;;;;6.37;6.00;;;18.80;99.90;;;;;;5012466;28;20618;-65
2021/07/06 01:10:32;;;;;;;5.90;5.60;;;18.80;99.90;;;;;;4992837;28;20567;-66
2021/07/06 01:12:59;;;;;;;5.67;5.03;;;18.80;99.90;;;;;;4992681;28;20806;-66
2021/07/06 01:15:26;;;;;;;5.87;5.47;;;18.70;99.90;;;;;;5011284;28;20207;-66
2021/07/06 01:18:02;;;;;;;5.10;4.83;;;18.70;99.90;;;;;;5011100;28;20176;-66
2021/07/06 01:20:29;;;;;;;5.23;5.03;;;18.60;99.90;;;;;;5012006;28;20207;-66
2021/07/06 01:22:54;;;;;;;5.30;5.00;;;18.50;99.90;;;;;;5012074;28;20200;-65
2021/07/06 01:25:20;;;;;;;6.57;6.07;;;18.50;99.90;;;;;;5012049;28;20176;-66
2021/07/06 01:27:46;;;;;;;6.40;5.60;;;18.40;99.90;;;;;;5011811;28;20176;-65
2021/07/06 01:30:15;;;;;;;5.20;5.00;;;18.30;99.90;;;;;;5011784;28;20559;-66
2021/07/06 01:32:43;;;;;;;5.73;5.43;;;18.30;99.90;;;;;;5011051;28;20658;-66
2021/07/06 01:35:10;;;;;;;5.70;5.40;;;18.20;99.90;;;;;;5011807;28;20179;-66
2021/07/06 01:37:42;;;;;;;6.03;5.67;;;18.20;99.90;;;;;;5011706;28;20177;-66
2021/07/06 01:40:08;;;;;;;5.50;5.20;;;18.20;99.90;;;;;;5010431;28;20299;-65
2021/07/06 01:42:33;;;;;;;5.70;5.30;;;18.20;99.90;;;;;;5011994;28;20199;-65
2021/07/06 01:45:12;;;;;;;6.20;5.80;;;18.30;99.90;;;;;;5011659;28;20191;-66
2021/07/06 01:47:40;;;;;;;5.87;5.57;;;18.30;99.90;;;;;;5011604;28;20251;-65
2021/07/06 01:50:09;;;;;;;5.80;5.50;;;18.40;99.90;;;;;;5010052;28;20275;-65
2021/07/06 01:52:34;;;;;;;6.13;5.73;;;18.40;99.90;;;;;;5011799;28;20172;-65
2021/07/06 01:55:00;;;;;;;5.50;5.20;;;18.30;99.90;;;;;;5011464;28;20267;-66
2021/07/06 01:57:26;;;;;;;6.10;5.60;;;18.30;99.90;;;;;;5011589;28;20183;-66
2021/07/06 01:59:52;;;;;;;6.27;5.60;;;18.30;99.90;;;;;;5011317;28;20207;-65
2021/07/06 02:02:17;;;;;;;6.03;5.63;;;18.30;99.90;;;;;;5011624;28;20554;-66
2021/07/06 02:04:45;;;;;;;5.70;5.40;;;18.30;99.90;;;;;;5012059;28;20169;-70
2021/07/06 02:07:10;;;;;;;5.70;5.30;;;18.20;99.90;;;;;;5012414;28;20630;-71
2021/07/06 02:09:36;;;;;;;5.60;5.30;;;18.20;99.90;;;;;;5012486;28;20199;-70
2021/07/06 02:12:02;;;;;;;6.33;6.00;;;18.20;99.90;;;;;;5011638;28;20583;-70
2021/07/06 02:14:28;;;;;;;5.93;5.60;;;18.20;99.90;;;;;;5012078;28;20168;-69
2021/07/06 02:16:53;;;;;;;6.33;5.70;;;18.20;99.90;;;;;;5012898;28;20180;-71
2021/07/06 02:19:19;;;;;;;5.87;5.57;;;18.20;99.90;;;;;;5016281;28;20191;-70
2021/07/06 02:21:45;;;;;;;5.80;5.50;;;18.20;99.90;;;;;;5016427;28;20713;-72
2021/07/06 02:24:11;;;;;;;6.13;5.63;;;18.20;99.90;;;;;;5016061;28;20214;-71
2021/07/06 02:26:37;;;;;;;6.13;5.83;;;18.20;99.90;;;;;;5016057;28;20218;-72
2021/07/06 02:29:02;;;;;;;6.17;5.77;;;18.20;99.90;;;;;;5016284;28;20180;-71
2021/07/06 02:31:28;;;;;;;6.27;5.90;;;18.30;99.90;;;;;;5016021;28;20199;-70
2021/07/06 02:33:53;;;;;;;6.83;6.30;;;18.20;99.90;;;;;;5015542;28;20713;-68
2021/07/06 02:36:19;;;;;;;6.50;6.10;;;18.20;99.90;;;;;;5015746;28;20283;-68
2021/07/06 02:38:45;;;;;;;6.63;6.23;;;18.20;99.90;;;;;;5016195;28;20665;-71
2021/07/06 02:41:10;;;;;;;6.63;6.23;;;18.20;99.90;;;;;;5016224;28;20216;-70
2021/07/06 02:43:38;;;;;;;6.00;5.60;;;18.20;99.90;;;;;;5015738;28;20207;-69
2021/07/06 02:46:04;;;;;;;6.27;5.67;;;18.20;99.90;;;;;;5016022;28;20292;-70
2021/07/06 02:48:30;;;;;;;5.73;5.43;;;18.20;99.90;;;;;;5015936;28;20251;-70
2021/07/06 02:50:56;;;;;;;6.00;5.60;;;18.20;99.90;;;;;;5015971;28;20196;-68
2021/07/06 02:53:21;;;;;;;6.23;5.87;;;18.20;99.90;;;;;;5015839;28;20244;-69
2021/07/06 02:55:47;;;;;;;6.07;5.43;;;18.20;99.90;;;;;;5015692;28;20664;-69
2021/07/06 02:58:13;;;;;;;6.07;5.77;;;18.20;99.90;;;;;;5015819;28;20181;-67
2021/07/06 03:00:38;;;;;;;6.30;6.00;;;18.20;99.90;;;;;;5015807;28;20807;-67
2021/07/06 03:03:06;;;;;;;6.37;5.97;;;18.10;99.90;;;;;;5015461;28;20242;-70
2021/07/06 03:05:32;;;;;;;6.10;5.80;;;18.10;99.90;;;;;;5015770;28;20540;-69
2021/07/06 03:07:59;;;;;;;6.60;6.03;;;18.20;99.90;;;;;;5015022;28;20584;-69
2021/07/06 03:10:30;;;;;;;5.70;5.40;;;18.10;99.90;;;;;;5015691;28;20196;-71
2021/07/06 03:12:56;;;;;;;6.33;5.90;;;18.10;99.90;;;;;;5015460;28;20199;-70
2021/07/06 03:15:25;;;;;;;6.03;5.70;;;18.10;99.90;;;;;;5015520;28;20180;-69
2021/07/06 03:17:51;;;;;;;6.37;5.30;;;18.10;99.90;;;;;;5014823;28;20265;-69
2021/07/06 03:20:18;;;;;;;6.23;5.93;;;18.10;99.90;;;;;;5015147;28;20290;-71
2021/07/06 03:22:45;;;;;;;6.60;6.20;;;18.20;99.90;;;;;;5014908;28;20665;-68
2021/07/06 03:25:14;;;;;;;6.00;5.70;;;18.20;99.90;;;;;;5015592;28;20618;-68
2021/07/06 03:27:40;;;;;;;6.20;5.60;;;18.20;99.90;;;;;;5013966;28;20542;-69
2021/07/06 03:30:09;;;;;;;6.57;6.17;;;18.20;99.90;;;;;;5015180;28;20192;-68
2021/07/06 03:32:35;;;;;;;5.77;5.47;;;18.20;99.90;;;;;;5015223;28;20180;-68
2021/07/06 03:35:03;;;;;;;6.20;5.80;;;18.10;99.90;;;;;;5014075;28;20819;-69
2021/07/06 03:37:30;;;;;;;5.40;5.10;;;18.10;99.90;;;;;;5013522;28;20214;-69
2021/07/06 03:39:55;;;;;;;5.80;5.50;;;18.10;99.90;;;;;;5015188;28;20581;-69
2021/07/06 03:42:21;;;;;;;6.73;6.13;;;18.10;99.90;;;;;;5014695;28;20188;-70
2021/07/06 03:44:46;;;;;;;5.97;5.63;;;18.20;99.90;;;;;;5015307;28;20183;-67
2021/07/06 03:47:12;;;;;;;6.00;5.50;;;18.20;99.90;;;;;;5014692;28;20188;-70
2021/07/06 03:49:37;;;;;;;8.23;5.53;;;18.20;99.90;;;;;;5014772;28;20191;-70
2021/07/06 03:52:04;;;;;;;5.80;5.50;;;18.20;99.90;;;;;;5014503;28;20216;-71
2021/07/06 03:54:30;;;;;;;5.27;5.07;;;18.30;99.90;;;;;;5014781;28;20183;-71
2021/07/06 03:56:56;;;;;;;5.77;5.37;;;18.30;99.90;;;;;;5014292;28;20176;-70
2021/07/06 03:59:22;;;;;;;6.13;5.73;;;18.30;99.90;;;;;;5013730;28;20240;-65
2021/07/06 04:01:49;;;;;;;5.63;5.33;;;18.30;99.90;;;;;;5013304;28;20192;-65
2021/07/06 04:04:15;;;;;;;5.80;5.40;;;18.30;99.90;;;;;;5013252;28;20200;-65
2021/07/06 04:06:41;;;;;;;5.93;5.63;;;18.30;99.90;;;;;;5013284;28;20199;-65
2021/07/06 04:09:06;;;;;;;5.93;5.57;;;18.30;99.90;;;;;;5013706;28;20172;-65
2021/07/06 04:11:32;;;;;;;6.53;5.93;;;18.20;99.90;;;;;;5013145;28;20276;-65
2021/07/06 04:13:57;;;;;;;6.13;5.83;;;18.10;99.90;;;;;;5013364;28;20191;-65
2021/07/06 04:16:23;;;;;;;6.53;6.13;;;18.10;99.90;;;;;;5012618;28;20538;-65
2021/07/06 04:18:49;;;;;;;6.33;6.03;;;18.10;99.90;;;;;;5013077;28;20679;-65
2021/07/06 04:21:14;;;;;;;6.70;6.30;;;18.00;99.90;;;;;;5013262;28;20654;-65
2021/07/06 04:23:40;;;;;;;6.97;6.40;;;18.00;99.90;;;;;;5012962;28;20251;-65
2021/07/06 04:26:07;;;;;;;6.43;6.03;;;18.00;99.90;;;;;;5012901;28;20205;-65
2021/07/06 04:28:33;;;;;;;7.20;6.53;;;18.00;99.90;;;;;;5012963;28;20177;-65
2021/07/06 04:31:00;;;;;;;6.57;6.07;;;17.90;99.90;;;;;;5013041;28;20192;-67
2021/07/06 04:33:26;;;;;;;6.97;6.67;;;18.00;99.90;;;;;;5012893;28;20188;-65
2021/07/06 04:35:51;;;;;;;6.50;5.97;;;17.90;99.90;;;;;;5012696;28;20221;-65
2021/07/06 04:38:17;;;;;;;6.80;6.30;;;17.90;99.90;;;;;;5012703;28;20665;-66
2021/07/06 04:40:43;;;;;;;6.20;5.80;;;17.90;99.90;;;;;;5020373;22;20216;-67
2021/07/06 04:43:09;;;;;;;6.90;6.50;;;17.90;99.90;;;;;;5012427;28;20211;-66
2021/07/06 04:45:36;;;;;;;7.40;7.00;;;17.90;99.90;;;;;;5011594;28;20310;-66
2021/07/06 04:48:02;;;;;;;6.53;5.90;;;17.90;99.90;;;;;;5012221;28;20258;-66
2021/07/06 04:50:28;;;;;;;7.13;6.63;;;17.90;99.90;;;;;;5012377;28;20270;-67
2021/07/06 04:52:54;;;;;;;6.40;6.00;;;17.90;99.90;;;;;;5011588;28;20176;-64
2021/07/06 04:55:20;;;;;;;6.03;5.67;;;17.90;99.90;;;;;;5012659;28;20233;-65
2021/07/06 04:57:46;;;;;;;6.33;5.93;;;17.90;99.90;;;;;;5011886;28;20180;-65
2021/07/06 05:00:14;;;;;;;6.57;6.17;;;17.90;99.90;;;;;;5012332;28;20198;-65
2021/07/06 05:02:40;;;;;;;6.53;6.13;;;17.90;99.90;;;;;;5012204;28;20208;-64
2021/07/06 05:05:07;;;;;;;7.10;6.30;;;17.90;99.90;;;;;;5012500;28;20520;-66
2021/07/06 05:07:36;;;;;;;8.03;6.57;;;17.90;99.90;;;;;;5012005;28;20637;-66
2021/07/06 05:10:11;;;;;;;6.63;6.13;;;17.90;99.90;;;;;;5012215;28;20231;-64
2021/07/06 05:12:36;;;;;;;6.40;6.00;;;17.90;99.90;;;;;;5012105;28;20660;-64
2021/07/06 05:15:04;;;;;;;6.77;6.27;;;17.90;99.90;;;;;;5012242;28;20307;-66
2021/07/06 05:17:30;;;;;;;6.80;6.40;;;17.90;99.90;;;;;;5012120;28;20175;-64
2021/07/06 05:19:55;;;;;;;6.87;6.47;;;17.90;99.90;;;;;;5011837;28;20619;-66
2021/07/06 05:22:22;;;;;;;6.77;6.37;;;18.00;99.90;;;;;;5012334;28;20230;-66
2021/07/06 05:24:48;;;;;;;7.23;6.83;;;17.90;99.90;;;;;;5011972;28;20184;-66
2021/07/06 05:27:14;;;;;;;7.23;6.77;;;17.90;99.90;;;;;;5011154;28;20199;-67
2021/07/06 05:29:40;;;;;;;7.33;6.73;;;17.90;99.90;;;;;;5011842;28;20217;-66
2021/07/06 05:32:06;;;;;;;6.83;6.43;;;17.90;99.90;;;;;;5011931;28;20183;-66
2021/07/06 05:34:31;;;;;;;6.40;6.00;;;17.90;99.90;;;;;;5011914;28;20262;-66
2021/07/06 05:36:57;;;;;;;6.83;6.33;;;17.90;99.90;;;;;;5011887;28;20677;-66
2021/07/06 05:39:23;;;;;;;7.27;6.77;;;18.00;99.90;;;;;;5011677;28;20238;-66
2021/07/06 05:41:48;;;;;;;6.97;6.47;;;18.00;99.90;;;;;;5011752;28;20572;-66
2021/07/06 05:44:15;;;;;;;7.40;6.90;;;18.00;99.90;;;;;;5011638;28;20230;-66
2021/07/06 05:46:40;;;;;;;8.20;7.70;;;18.00;99.90;;;;;;5011431;28;20179;-67
2021/07/06 05:49:06;;;;;;;7.50;6.93;;;18.00;99.90;;;;;;5012060;28;20172;-67
2021/07/06 05:51:32;;;;;;;7.77;7.07;;;17.90;99.90;;;;;;5014889;28;20673;-67
2021/07/06 05:53:58;;;;;;;6.90;6.50;;;17.90;99.90;;;;;;4998696;28;20169;-66
2021/07/06 05:56:23;;;;;;;7.57;7.17;;;17.90;99.90;;;;;;4998522;28;20173;-66
2021/07/06 05:58:49;;;;;;;8.17;7.47;;;17.90;99.90;;;;;;5015020;28;20191;-67
2021/07/06 06:01:16;;;;;;;8.60;8.00;;;17.90;99.90;;;;;;5018310;28;20568;-65
2021/07/06 06:03:42;;;;;;;7.77;7.27;;;17.80;99.90;;;;;;5017822;28;20283;-66
2021/07/06 06:06:08;;;;;;;7.57;7.03;;;17.90;99.90;;;;;;5017825;28;20199;-67
2021/07/06 06:08:36;;;;;;;7.20;6.60;;;17.90;99.90;;;;;;5017973;28;20230;-67
2021/07/06 06:11:02;;;;;;;8.43;7.63;;;17.90;99.90;;;;;;5018022;28;20188;-67
2021/07/06 06:13:27;;;;;;;7.97;7.30;;;17.90;99.90;;;;;;5018103;28;20184;-66
2021/07/06 06:15:53;;;;;;;7.43;6.93;;;17.90;99.90;;;;;;5017813;28;20677;-67
2021/07/06 06:18:19;;;;;;;7.50;6.90;;;17.90;99.90;;;;;;5017859;28;20255;-67
2021/07/06 06:20:44;;;;;;;7.03;6.63;;;18.00;99.90;;;;;;5017999;28;20206;-65
2021/07/06 06:23:10;;;;;;;6.97;6.47;;;18.00;99.90;;;;;;5017945;28;20688;-65
2021/07/06 06:25:35;;;;;;;7.37;6.67;;;18.10;99.90;;;;;;5017957;28;20194;-67
2021/07/06 06:28:01;;;;;;;7.37;6.83;;;18.10;99.90;;;;;;5018012;28;20508;-65
2021/07/06 06:30:26;;;;;;;7.80;7.10;;;18.10;99.90;;;;;;5017938;28;20199;-65
2021/07/06 06:32:55;;;;;;;8.57;7.77;;;18.10;99.90;;;;;;5016627;28;20175;-65
2021/07/06 06:35:20;;;;;;;8.90;8.20;;;18.10;99.90;;;;;;5018272;28;20183;-65
2021/07/06 06:37:46;;;;;;;7.30;6.73;;;18.00;99.90;;;;;;5017517;28;20191;-65
2021/07/06 06:40:13;;;;;;;7.60;7.00;;;18.00;99.90;;;;;;5017678;28;20243;-65
2021/07/06 06:42:39;;;;;;;9.10;8.50;;;18.00;99.90;;;;;;5017917;28;20573;-65
2021/07/06 06:45:06;;;;;;;7.30;6.80;;;18.00;99.90;;;;;;5017876;28;20186;-65
2021/07/06 06:47:34;;;;;;;8.40;7.67;;;18.00;99.90;;;;;;5017228;28;20716;-65
2021/07/06 06:49:59;;;;;;;8.67;8.07;;;18.00;99.90;;;;;;5017718;28;20200;-65
2021/07/06 06:52:25;;;;;;;8.80;8.20;;;17.90;99.90;;;;;;5016261;28;20672;-64
2021/07/06 06:54:51;;;;;;;7.80;7.20;;;17.90;99.90;;;;;;5017822;28;20562;-65
2021/07/06 06:57:21;;;;;;;7.83;7.27;;;17.90;99.90;;;;;;5017494;28;20259;-65
2021/07/06 06:59:47;;;;;;;11.00;10.33;;;17.90;99.90;;;;;;5017625;28;20271;-66
2021/07/06 07:02:17;;;;;;;8.50;7.90;;;17.90;99.90;;;;;;5016827;28;20677;-66
2021/07/06 07:04:52;;;;;;;10.80;9.87;;;17.90;99.90;;;;;;5014722;28;20172;-66
2021/07/06 07:07:19;;;;;;;10.53;9.43;;;17.90;99.90;;;;;;5014293;28;20263;-65
2021/07/06 07:09:46;;;;;;;8.57;7.97;;;18.00;99.90;;;;;;5014495;28;20172;-65
2021/07/06 07:12:12;;;;;;;8.67;8.10;;;18.00;99.90;;;;;;5014310;28;20180;-66
2021/07/06 07:14:38;;;;;;;8.70;7.90;;;18.00;99.90;;;;;;5014483;28;20213;-65
2021/07/06 07:17:05;;;;;;;7.70;7.27;;;18.00;99.90;;;;;;5013656;28;20642;-65
2021/07/06 07:19:31;;;;;;;8.03;7.53;;;18.00;99.90;;;;;;5014463;28;20638;-65
2021/07/06 07:21:57;;;;;;;7.97;7.47;;;18.00;99.90;;;;;;5013960;28;20282;-65
2021/07/06 07:24:22;;;;;;;7.50;7.00;;;18.10;99.90;;;;;;5014776;28;20290;-65
2021/07/06 07:26:49;;;;;;;8.03;7.33;;;18.10;99.90;;;;;;5017094;28;20584;-65
2021/07/06 07:29:15;;;;;;;7.80;7.30;;;18.10;99.90;;;;;;5013801;28;20172;-65
2021/07/06 07:31:42;;;;;;;7.93;7.20;;;18.20;99.90;;;;;;5013691;28;20196;-65
2021/07/06 07:34:07;;;;;;;8.23;7.53;;;18.20;99.90;;;;;;5013700;28;20195;-66
2021/07/06 07:36:33;;;;;;;9.00;8.43;;;18.20;99.90;;;;;;5013540;28;20180;-65
2021/07/06 07:38:59;;;;;;;8.70;8.20;;;18.30;99.90;;;;;;5013928;28;20206;-65
2021/07/06 07:41:25;;;;;;;7.47;6.97;;;18.30;99.90;;;;;;5013609;28;20643;-65
2021/07/06 07:43:54;;;;;;;7.33;6.80;;;18.40;99.90;;;;;;5013773;28;20303;-65
2021/07/06 07:46:24;;;;;;;8.37;7.77;;;18.40;99.90;;;;;;5013392;28;20208;-65
2021/07/06 07:48:49;;;;;;;7.30;6.90;;;18.40;99.90;;;;;;5013681;28;20178;-65
2021/07/06 07:51:16;;;;;;;7.80;7.30;;;18.50;99.90;;;;;;5013445;28;20271;-65
2021/07/06 07:53:42;;;;;;;7.30;6.80;;;18.50;99.90;;;;;;5013741;28;20179;-65
2021/07/06 07:56:07;;;;;;;6.70;6.30;;;18.50;99.90;;;;;;5013217;28;20188;-65
2021/07/06 07:58:33;;;;;;;7.00;6.50;;;18.60;99.90;;;;;;5012278;28;20219;-65
2021/07/06 08:00:59;;;;;;;7.10;6.30;;;18.60;99.90;;;;;;5012991;28;20282;-65
2021/07/06 08:03:24;;;;;;;6.90;6.40;;;18.60;99.90;;;;;;5013233;28;20207;-65
2021/07/06 08:05:50;;;;;;;7.00;6.60;;;18.70;99.90;;;;;;5012596;28;20184;-65
2021/07/06 08:08:17;;;;;;;7.73;7.03;;;18.70;99.90;;;;;;5013327;28;20648;-66
2021/07/06 08:10:42;;;;;;;7.63;7.13;;;18.80;99.90;;;;;;5013023;28;20862;-65
2021/07/06 08:13:09;;;;;;;7.07;6.57;;;18.90;99.90;;;;;;5013420;28;20180;-65
2021/07/06 08:15:36;;;;;;;6.57;6.17;;;19.00;99.90;;;;;;5012604;28;20180;-65
2021/07/06 08:18:02;;;;;;;8.47;7.97;;;19.20;99.90;;;;;;5012152;28;20263;-66
2021/07/06 08:20:27;;;;;;;7.63;7.17;;;19.30;99.90;;;;;;5012856;28;20346;-65
2021/07/06 08:22:56;;;;;;;6.50;6.10;;;19.50;99.90;;;;;;5013098;28;20250;-65
2021/07/06 08:25:23;;;;;;;7.87;7.23;;;19.60;99.90;;;;;;5012934;28;20187;-65
2021/07/06 08:27:49;;;;;;;6.93;6.53;;;19.70;99.90;;;;;;5012811;28;20246;-65
2021/07/06 08:30:15;;;;;;;10.37;8.07;;;19.80;99.90;;;;;;5012097;28;20270;-65
2021/07/06 08:32:41;;;;;;;8.40;7.63;;;19.90;99.90;;;;;;5004160;28;20191;-65
2021/07/06 08:35:07;;;;;;;7.50;6.90;;;19.90;99.90;;;;;;5017519;28;20645;-65
2021/07/06 08:37:32;;;;;;;7.40;6.80;;;19.80;99.90;;;;;;5011917;28;20292;-65
2021/07/06 08:39:59;;;;;;;7.70;7.10;;;19.80;99.90;;;;;;5012559;28;20666;-65
2021/07/06 08:42:25;;;;;;;7.97;7.27;;;19.80;99.90;;;;;;5012795;28;20263;-65
2021/07/06 08:44:51;;;;;;;7.47;6.97;;;19.70;99.90;;;;;;5012761;28;20175;-65
2021/07/06 08:47:18;;;;;;;8.33;7.63;;;19.70;99.90;;;;;;5012512;28;20176;-65
2021/07/06 08:49:47;;;;;;;7.37;6.77;;;19.70;99.90;;;;;;5012513;28;20226;-65
2021/07/06 08:52:14;;;;;;;6.63;6.23;;;19.80;99.90;;;;;;5012579;28;20660;-65
2021/07/06 08:54:39;;;;;;;6.70;6.30;;;19.90;99.90;;;;;;5012625;28;20231;-65
2021/07/06 08:57:06;;;;;;;7.30;6.80;;;20.00;99.90;;;;;;5012378;28;20808;-65
2021/07/06 08:59:39;;;;;;;7.67;7.03;;;20.20;99.90;;;;;;5012557;28;20180;-65
2021/07/06 09:02:06;;;;;;;8.20;7.60;;;20.20;99.90;;;;;;5011144;28;20194;-65
2021/07/06 09:04:45;;;;;;;6.50;6.00;;;20.10;99.90;;;;;;5012307;28;20239;-65
2021/07/06 09:07:11;;;;;;;8.60;7.90;;;20.20;99.90;;;;;;5012272;28;20188;-65
2021/07/06 09:09:37;;;;;;;7.40;6.80;;;20.30;99.90;;;;;;5012306;28;20187;-66
2021/07/06 09:12:03;;;;;;;8.40;7.03;;;20.40;99.90;;;;;;5012253;28;20184;-65
2021/07/06 09:14:31;;;;;;;9.60;7.63;;;20.40;99.90;;;;;;5012219;28;20666;-65
2021/07/06 09:17:14;;;;;;;7.07;6.57;;;20.50;99.90;;;;;;5010781;28;20396;-65
2021/07/06 09:19:45;;;;;;;6.80;6.30;;;20.60;99.90;;;;;;5015381;28;20179;-66
2021/07/06 09:22:24;;;;;;;9.23;8.33;;;20.70;99.90;;;;;;5031811;28;20695;-65
2021/07/06 09:24:59;;;;;;;7.13;6.53;;;20.90;99.90;;;;;;5017819;28;20183;-65
2021/07/06 09:27:27;;;;;;;7.67;6.83;;;21.10;99.90;;;;;;5011218;28;20168;-65
2021/07/06 09:30:16;;;;;;;5.80;5.50;;;21.20;99.90;;;;;;5011122;28;20176;-66
2021/07/06 09:32:43;;;;;;;6.23;5.70;;;21.30;99.90;;;;;;5011368;28;20176;-66
2021/07/06 09:35:25;;;;;;;5.33;5.03;;;21.60;99.90;;;;;;5011428;28;20176;-66
2021/07/06 09:37:57;;;;;;;5.23;5.00;;;21.80;99.90;;;;;;5011650;28;20164;-66
2021/07/06 09:40:33;;;;;;;5.00;4.70;;;21.90;99.90;;;;;;5011364;28;20215;-65
2021/07/06 09:43:31;;;;;;;4.82;4.63;;;22.00;99.90;;;;;;5011830;28;20196;-65
2021/07/06 09:45:58;;;;;;;5.07;4.88;;;22.10;99.90;;;;;;5011427;28;20176;-65
2021/07/06 09:48:24;;;;;;;4.70;4.50;;;22.30;99.90;;;;;;5011254;28;20172;-65
2021/07/06 09:50:50;;;;;;;4.85;4.65;;;22.40;99.90;;;;;;5011742;28;20620;-65
2021/07/06 09:53:29;;;;;;;4.40;4.20;;;22.50;99.90;;;;;;5011608;28;20180;-65
2021/07/06 09:55:55;;;;;;;5.03;4.83;;;22.40;99.90;;;;;;5011247;28;20230;-65
2021/07/06 09:58:21;;;;;;;5.00;4.80;;;22.40;99.90;;;;;;5011540;28;20542;-66
2021/07/06 10:00:48;;;;;;;5.00;4.70;;;22.30;99.90;;;;;;5011177;28;20211;-65
2021/07/06 10:03:14;;;;;;;4.50;4.30;;;22.40;99.90;;;;;;5011417;28;20234;-65
2021/07/06 10:05:43;;;;;;;5.25;4.95;;;22.50;99.90;;;;;;5011252;28;20199;-66
2021/07/06 10:08:10;;;;;;;4.93;4.63;;;22.60;99.90;;;;;;5010601;28;20266;-65
2021/07/06 10:10:36;;;;;;;5.05;4.85;;;22.70;99.90;;;;;;5011319;28;20681;-66
2021/07/06 10:13:02;;;;;;;5.00;4.80;;;22.90;99.90;;;;;;4991991;28;20173;-65
2021/07/06 10:15:28;;;;;;;4.53;4.32;;;23.10;99.90;;;;;;5005038;28;20259;-65
2021/07/06 10:17:53;;;;;;;5.35;5.15;;;23.10;99.90;;;;;;5010407;28;20181;-66
2021/07/06 10:20:22;;;;;;;5.10;4.90;;;23.40;99.90;;;;;;5011233;28;20204;-66
2021/07/06 10:22:55;;;;;;;4.45;4.25;;;24.10;99.90;;;;;;5010872;28;20223;-66
2021/07/06 10:25:27;;;;;;;4.85;4.65;;;24.80;99.90;;;;;;5011647;28;20175;-65
2021/07/06 10:27:55;;;;;;;4.10;3.90;;;25.40;99.90;;;;;;5010865;28;20589;-66
2021/07/06 10:30:24;;;;;;;4.20;4.00;;;25.80;99.90;;;;;;5010759;28;20196;-66
2021/07/06 10:32:58;;;;;;;4.03;3.83;;;25.80;99.90;;;;;;5010686;28;20238;-65
2021/07/06 10:35:46;;;;;;;4.00;3.80;;;26.10;99.90;;;;;;5011041;28;20657;-66
2021/07/06 10:38:31;;;;;;;4.50;4.20;;;26.30;99.90;;;;;;5012096;28;20180;-66
2021/07/06 10:41:13;;;;;;;4.38;4.10;;;26.30;99.90;;;;;;5035087;28;20218;-66
2021/07/06 10:43:41;;;;;;;4.55;4.30;;;26.30;99.90;;;;;;4998130;28;20211;-66
2021/07/06 10:46:29;;;;;;;4.28;4.07;;;26.00;99.90;;;;;;5014314;28;20187;-66
2021/07/06 10:49:03;;;;;;;4.00;3.80;;;26.10;99.90;;;;;;5014048;28;20183;-66
2021/07/06 10:51:37;;;;;;;4.88;4.68;;;26.10;99.90;;;;;;5014894;28;20235;-66
2021/07/06 10:54:19;;;;;;;4.57;4.38;;;25.90;99.90;;;;;;5014480;28;20187;-65
2021/07/06 10:56:47;;;;;;;4.10;3.80;;;25.70;99.90;;;;;;5014370;28;20179;-66
2021/07/06 10:59:35;;;;;;;4.07;3.88;;;25.60;99.90;;;;;;5013557;28;20186;-66
2021/07/06 11:02:02;;;;;;;4.68;4.47;;;26.00;99.90;;;;;;5013912;28;20184;-66
2021/07/06 11:04:37;;;;;;;4.03;3.83;;;26.60;99.90;;;;;;5014477;28;20211;-66
2021/07/06 11:07:12;;;;;;;4.18;3.97;;;27.10;99.90;;;;;;5014341;28;20218;-66
2021/07/06 11:09:38;;;;;;;4.93;4.72;;;27.80;99.90;;;;;;5013722;28;20186;-66
2021/07/06 11:12:24;;;;;;;3.60;3.50;;;28.00;99.90;;;;;;5014513;28;20176;-65
2021/07/06 11:14:56;;;;;;;4.63;4.32;;;27.90;99.90;;;;;;5014051;28;20180;-65
2021/07/06 11:17:31;;;;;;;3.70;3.50;;;28.30;99.90;;;;;;5014241;28;20714;-65
2021/07/06 11:19:59;;;;;;;5.28;5.07;;;28.30;99.90;;;;;;4993509;28;20211;-66
2021/07/06 11:22:45;;;;;;;4.28;4.07;;;28.10;99.90;;;;;;5006782;28;20229;-66
2021/07/06 11:25:19;;;;;;;4.10;3.90;;;27.60;99.90;;;;;;5014246;28;20237;-66
2021/07/06 11:27:57;;;;;;;4.32;4.03;;;27.30;99.90;;;;;;5013899;28;20225;-66
2021/07/06 11:30:30;;;;;;;3.90;3.60;;;27.20;99.90;;;;;;5012418;28;20207;-66
2021/07/06 11:33:03;;;;;;;3.83;3.63;;;26.70;99.90;;;;;;5013446;28;20175;-65
2021/07/06 11:35:32;;;;;;;3.60;3.50;;;26.30;99.90;;;;;;5014217;28;20176;-65
2021/07/06 11:38:03;;;;;;;4.40;4.10;;;25.90;99.90;;;;;;5013494;28;20184;-66
2021/07/06 11:40:29;;;;;;;5.18;4.68;;;25.80;99.90;;;;;;5013832;28;20666;-65
2021/07/06 11:42:56;;;;;;;4.30;4.10;;;25.80;99.90;;;;;;5013509;28;20665;-65
2021/07/06 11:45:22;;;;;;;4.00;3.85;;;25.90;99.90;;;;;;5013834;28;20176;-66
2021/07/06 11:47:47;;;;;;;3.60;3.40;;;26.40;99.90;;;;;;5013249;28;20176;-65
2021/07/06 11:50:27;;;;;;;3.85;3.65;;;26.80;99.90;;;;;;5030927;28;20192;-65
2021/07/06 11:52:53;;;;;;;4.07;3.88;;;27.00;99.90;;;;;;5026599;28;20222;-65
2021/07/06 11:55:26;;;;;;;4.55;4.20;;;26.90;99.90;;;;;;5013547;28;20176;-66
2021/07/06 11:57:55;;;;;;;4.10;3.90;;;27.10;99.90;;;;;;5013105;28;20199;-65
2021/07/06 12:00:26;;;;;;;3.65;3.45;;;27.30;99.90;;;;;;5012061;28;20204;-65
2021/07/06 12:03:15;;;;;;;4.40;4.20;;;27.50;99.90;;;;;;4993818;28;20208;-66
2021/07/06 12:05:41;;;;;;;3.78;3.58;;;26.80;99.90;;;;;;4996088;28;20172;-65
2021/07/06 12:08:27;;;;;;;4.05;3.85;;;26.40;99.90;;;;;;5013161;28;20187;-65
2021/07/06 12:11:20;;;;;;;3.90;3.70;;;26.30;99.90;;;;;;5011802;28;20207;-65
2021/07/06 12:13:49;;;;;;;3.97;3.67;;;26.90;99.90;;;;;;5012167;28;20211;-65
2021/07/06 12:16:16;;;;;;;3.90;3.70;;;27.20;99.90;;;;;;5011596;28;20187;-65
2021/07/06 12:18:56;;;;;;;4.65;4.35;;;27.60;99.90;;;;;;5012363;28;20184;-65
2021/07/06 12:21:33;;;;;;;4.03;3.78;;;27.00;99.90;;;;;;5013302;28;20196;-65
2021/07/06 12:24:05;;;;;;;3.50;3.40;;;26.80;99.90;;;;;;5012729;28;20239;-65
2021/07/06 12:26:31;;;;;;;4.65;4.35;;;27.00;99.90;;;;;;5012674;28;20263;-66
2021/07/06 12:28:57;;;;;;;4.38;4.10;;;27.40;99.90;;;;;;5012945;28;20176;-65
2021/07/06 12:31:27;;;;;;;4.85;4.65;;;27.60;99.90;;;;;;5012351;28;20258;-65
2021/07/06 12:34:11;;;;;;;4.20;3.95;;;28.20;99.90;;;;;;5006433;28;20184;-65
2021/07/06 12:36:41;;;;;;;3.80;3.63;;;28.20;99.90;;;;;;5012926;28;20668;-65
2021/07/06 12:39:22;;;;;;;3.92;3.63;;;28.00;99.90;;;;;;5012591;28;20194;-65
2021/07/06 12:41:51;;;;;;;3.80;3.60;;;27.70;99.90;;;;;;4994920;28;20744;-65
2021/07/06 12:44:31;;;;;;;4.50;4.20;;;27.30;99.90;;;;;;5012799;28;20219;-64
2021/07/06 12:47:12;;;;;;;4.13;3.90;;;27.40;99.90;;;;;;5012392;28;20259;-64
2021/07/06 12:49:38;;;;;;;4.18;3.88;;;27.80;99.90;;;;;;5012510;28;20589;-64
2021/07/06 12:52:06;;;;;;;3.65;3.55;;;27.90;99.90;;;;;;5012812;28;20168;-64